sensor_id;sensor_type;location;lat;lon;timestamp;pressure;altitude;pressure_sealevel;temperature;humidity
22550;BME280;11441;57.164;-2.120;2023-04-19T00:02:20;103244.41;;;7.62;100.00
22550;BME280;11441;57.164;-2.120;2023-04-19T00:04:47;103249.63;;;7.63;100.00
22550;BME280;11441;57.164;-2.120;2023-04-19T00:07:14;103244.94;;;7.64;100.00
22550;BME280;11441;57.164;-2.120;2023-04-19T00:09:42;103244.69;;;7.70;100.00
22550;BME280;11441;57.164;-2.120;2023-04-19T00:12:09;103236.72;;;7.74;100.00
22550;BME280;11441;57.164;-2.120;2023-04-19T00:14:36;103240.81;;;7.77;100.00
22550;BME280;11441;57.164;-2.120;2023-04-19T00:17:03;103242.75;;;7.61;100.00
22550;BME280;11441;57.164;-2.120;2023-04-19T00:19:30;103241.66;;;7.57;100.00
22550;BME280;11441;57.164;-2.120;2023-04-19T00:22:15;103236.66;;;7.33;100.00
22550;BME280;11441;57.164;-2.120;2023-04-19T00:24:43;103235.06;;;7.47;100.00
22550;BME280;11441;57.164;-2.120;2023-04-19T00:27:10;103231.47;;;7.47;100.00
22550;BME280;11441;57.164;-2.120;2023-04-19T00:29:54;103230.34;;;7.27;100.00
22550;BME280;11441;57.164;-2.120;2023-04-19T00:32:23;103233.09;;;7.32;100.00
22550;BME280;11441;57.164;-2.120;2023-04-19T00:34:50;103235.34;;;7.46;100.00
22550;BME280;11441;57.164;-2.120;2023-04-19T00:37:17;103224.09;;;7.52;100.00
22550;BME280;11441;57.164;-2.120;2023-04-19T00:39:44;103230.94;;;7.50;100.00
22550;BME280;11441;57.164;-2.120;2023-04-19T00:42:11;103220.78;;;7.55;100.00
22550;BME280;11441;57.164;-2.120;2023-04-19T00:44:38;103228.75;;;7.57;100.00
22550;BME280;11441;57.164;-2.120;2023-04-19T00:47:04;103214.75;;;7.48;100.00
22550;BME280;11441;57.164;-2.120;2023-04-19T00:49:50;103225.44;;;7.45;100.00
22550;BME280;11441;57.164;-2.120;2023-04-19T00:52:17;103219.91;;;7.19;100.00
22550;BME280;11441;57.164;-2.120;2023-04-19T00:54:44;103226.28;;;7.35;100.00
22550;BME280;11441;57.164;-2.120;2023-04-19T00:57:12;103219.94;;;7.24;100.00
22550;BME280;11441;57.164;-2.120;2023-04-19T00:59:38;103230.06;;;7.24;100.00
22550;BME280;11441;57.164;-2.120;2023-04-19T01:02:06;103233.34;;;7.21;100.00
22550;BME280;11441;57.164;-2.120;2023-04-19T01:04:33;103238.84;;;7.21;100.00
22550;BME280;11441;57.164;-2.120;2023-04-19T01:07:01;103237.19;;;7.14;100.00
22550;BME280;11441;57.164;-2.120;2023-04-19T01:09:28;103246.44;;;7.03;100.00
22550;BME280;11441;57.164;-2.120;2023-04-19T01:11:56;103235.72;;;6.91;100.00
22550;BME280;11441;57.164;-2.120;2023-04-19T01:14:42;103240.56;;;6.64;100.00
22550;BME280;11441;57.164;-2.120;2023-04-19T01:17:28;103243.63;;;6.72;100.00
22550;BME280;11441;57.164;-2.120;2023-04-19T01:20:01;103230.06;;;6.50;100.00
22550;BME280;11441;57.164;-2.120;2023-04-19T01:22:29;103236.72;;;6.65;100.00
22550;BME280;11441;57.164;-2.120;2023-04-19T01:24:57;103237.53;;;6.65;100.00
22550;BME280;11441;57.164;-2.120;2023-04-19T01:27:24;103238.41;;;6.71;100.00
22550;BME280;11441;57.164;-2.120;2023-04-19T01:29:51;103241.13;;;6.66;100.00
22550;BME280;11441;57.164;-2.120;2023-04-19T01:32:18;103224.41;;;6.67;100.00
22550;BME280;11441;57.164;-2.120;2023-04-19T01:34:45;103235.13;;;6.79;100.00
22550;BME280;11441;57.164;-2.120;2023-04-19T01:37:12;103235.13;;;6.79;100.00
22550;BME280;11441;57.164;-2.120;2023-04-19T01:39:40;103214.16;;;6.47;100.00
22550;BME280;11441;57.164;-2.120;2023-04-19T01:42:06;103231.75;;;6.61;100.00
22550;BME280;11441;57.164;-2.120;2023-04-19T01:44:35;103228.78;;;6.68;100.00
22550;BME280;11441;57.164;-2.120;2023-04-19T01:47:03;103224.66;;;6.60;100.00
22550;BME280;11441;57.164;-2.120;2023-04-19T01:49:50;103229.91;;;6.67;100.00
22550;BME280;11441;57.164;-2.120;2023-04-19T01:52:17;103225.72;;;6.59;100.00
22550;BME280;11441;57.164;-2.120;2023-04-19T01:54:44;103214.97;;;6.48;100.00
22550;BME280;11441;57.164;-2.120;2023-04-19T01:57:13;103219.06;;;6.40;100.00
22550;BME280;11441;57.164;-2.120;2023-04-19T01:59:42;103224.78;;;6.33;100.00
22550;BME280;11441;57.164;-2.120;2023-04-19T02:02:09;103218.69;;;6.21;100.00
22550;BME280;11441;57.164;-2.120;2023-04-19T02:04:37;103220.22;;;6.07;100.00
22550;BME280;11441;57.164;-2.120;2023-04-19T02:07:04;103221.34;;;6.11;100.00
22550;BME280;11441;57.164;-2.120;2023-04-19T02:09:50;103210.81;;;5.92;100.00
22550;BME280;11441;57.164;-2.120;2023-04-19T02:12:18;103208.84;;;5.88;100.00
22550;BME280;11441;57.164;-2.120;2023-04-19T02:14:45;103209.13;;;5.91;100.00
22550;BME280;11441;57.164;-2.120;2023-04-19T02:17:11;103203.97;;;5.95;100.00
22550;BME280;11441;57.164;-2.120;2023-04-19T02:19:38;103203.59;;;5.81;100.00
22550;BME280;11441;57.164;-2.120;2023-04-19T02:22:05;103195.63;;;5.79;100.00
22550;BME280;11441;57.164;-2.120;2023-04-19T02:24:32;103198.38;;;5.79;100.00
22550;BME280;11441;57.164;-2.120;2023-04-19T02:26:59;103198.06;;;5.76;100.00
22550;BME280;11441;57.164;-2.120;2023-04-19T02:29:27;103193.97;;;5.73;100.00
22550;BME280;11441;57.164;-2.120;2023-04-19T02:31:54;103195.63;;;5.79;100.00
22550;BME280;11441;57.164;-2.120;2023-04-19T02:34:21;103195.97;;;5.88;100.00
22550;BME280;11441;57.164;-2.120;2023-04-19T02:36:48;103193.41;;;5.76;100.00
22550;BME280;11441;57.164;-2.120;2023-04-19T02:39:15;103188.16;;;5.64;100.00
22550;BME280;11441;57.164;-2.120;2023-04-19T02:41:43;103186.88;;;5.77;100.00
22550;BME280;11441;57.164;-2.120;2023-04-19T02:44:10;103190.22;;;5.84;100.00
22550;BME280;11441;57.164;-2.120;2023-04-19T02:46:36;103187.00;;;5.93;100.00
22550;BME280;11441;57.164;-2.120;2023-04-19T02:49:03;103177.00;;;5.76;100.00
22550;BME280;11441;57.164;-2.120;2023-04-19T02:51:30;103189.47;;;5.94;100.00
22550;BME280;11441;57.164;-2.120;2023-04-19T02:53:57;103190.50;;;5.88;100.00
22550;BME280;11441;57.164;-2.120;2023-04-19T02:56:24;103182.00;;;5.84;100.00
22550;BME280;11441;57.164;-2.120;2023-04-19T02:58:52;103192.97;;;5.90;100.00
22550;BME280;11441;57.164;-2.120;2023-04-19T03:01:20;103189.72;;;5.93;100.00
22550;BME280;11441;57.164;-2.120;2023-04-19T03:03:47;103197.91;;;5.55;100.00
22550;BME280;11441;57.164;-2.120;2023-04-19T03:06:14;103190.63;;;5.66;100.00
22550;BME280;11441;57.164;-2.120;2023-04-19T03:08:42;103196.97;;;5.72;100.00
22550;BME280;11441;57.164;-2.120;2023-04-19T03:11:10;103195.41;;;5.54;100.00
22550;BME280;11441;57.164;-2.120;2023-04-19T03:13:37;103210.19;;;5.53;100.00
22550;BME280;11441;57.164;-2.120;2023-04-19T03:16:06;103205.34;;;5.33;100.00
22550;BME280;11441;57.164;-2.120;2023-04-19T03:18:35;103204.53;;;5.32;100.00
22550;BME280;11441;57.164;-2.120;2023-04-19T03:21:03;103211.22;;;5.46;100.00
22550;BME280;11441;57.164;-2.120;2023-04-19T03:23:38;103207.31;;;5.37;100.00
22550;BME280;11441;57.164;-2.120;2023-04-19T03:26:05;103209.13;;;5.59;100.00
22550;BME280;11441;57.164;-2.120;2023-04-19T03:28:44;103209.63;;;5.23;100.00
22550;BME280;11441;57.164;-2.120;2023-04-19T03:31:14;103197.84;;;5.18;100.00
22550;BME280;11441;57.164;-2.120;2023-04-19T03:33:42;103215.97;;;5.29;100.00
22550;BME280;11441;57.164;-2.120;2023-04-19T03:36:11;103209.25;;;5.15;100.00
22550;BME280;11441;57.164;-2.120;2023-04-19T03:38:42;103211.53;;;5.23;100.00
22550;BME280;11441;57.164;-2.120;2023-04-19T03:41:19;103201.06;;;5.42;100.00
22550;BME280;11441;57.164;-2.120;2023-04-19T03:44:09;103202.66;;;5.38;100.00
22550;BME280;11441;57.164;-2.120;2023-04-19T03:46:39;103205.81;;;5.24;100.00
22550;BME280;11441;57.164;-2.120;2023-04-19T03:49:07;103202.88;;;5.31;100.00
22550;BME280;11441;57.164;-2.120;2023-04-19T03:51:35;103201.34;;;5.40;100.00
22550;BME280;11441;57.164;-2.120;2023-04-19T03:54:02;103202.66;;;5.38;100.00
22550;BME280;11441;57.164;-2.120;2023-04-19T03:56:29;103205.38;;;5.38;100.00
22550;BME280;11441;57.164;-2.120;2023-04-19T03:58:56;103208.66;;;5.35;100.00
22550;BME280;11441;57.164;-2.120;2023-04-19T04:01:23;103207.66;;;5.19;100.00
22550;BME280;11441;57.164;-2.120;2023-04-19T04:03:51;103204.09;;;5.18;100.00
22550;BME280;11441;57.164;-2.120;2023-04-19T04:06:19;103201.13;;;5.20;100.00
22550;BME280;11441;57.164;-2.120;2023-04-19T04:08:46;103205.22;;;5.22;100.00
22550;BME280;11441;57.164;-2.120;2023-04-19T04:11:13;103202.13;;;5.14;100.00
22550;BME280;11441;57.164;-2.120;2023-04-19T04:13:41;103201.88;;;5.15;100.00
22550;BME280;11441;57.164;-2.120;2023-04-19T04:16:17;103196.97;;;5.17;100.00
22550;BME280;11441;57.164;-2.120;2023-04-19T04:18:45;103205.66;;;5.09;100.00
22550;BME280;11441;57.164;-2.120;2023-04-19T04:21:13;103209.59;;;5.45;100.00
22550;BME280;11441;57.164;-2.120;2023-04-19T04:23:44;103198.28;;;5.37;100.00
22550;BME280;11441;57.164;-2.120;2023-04-19T04:26:17;103207.53;;;5.08;100.00
22550;BME280;11441;57.164;-2.120;2023-04-19T04:29:04;103198.72;;;5.01;100.00
22550;BME280;11441;57.164;-2.120;2023-04-19T04:31:31;103207.50;;;5.31;100.00
22550;BME280;11441;57.164;-2.120;2023-04-19T04:33:58;103193.31;;;5.06;100.00
22550;BME280;11441;57.164;-2.120;2023-04-19T04:36:25;103195.44;;;4.99;100.00
22550;BME280;11441;57.164;-2.120;2023-04-19T04:38:55;103207.72;;;4.97;100.00
22550;BME280;11441;57.164;-2.120;2023-04-19T04:41:22;103207.53;;;5.08;100.00
22550;BME280;11441;57.164;-2.120;2023-04-19T04:44:08;103209.78;;;5.12;100.00
22550;BME280;11441;57.164;-2.120;2023-04-19T04:46:40;103209.63;;;5.23;100.00
22550;BME280;11441;57.164;-2.120;2023-04-19T04:49:10;103217.59;;;5.03;100.00
22550;BME280;11441;57.164;-2.120;2023-04-19T04:51:39;103213.66;;;5.16;100.00
22550;BME280;11441;57.164;-2.120;2023-04-19T04:54:07;103211.88;;;5.04;100.00
22550;BME280;11441;57.164;-2.120;2023-04-19T04:56:34;103211.81;;;4.99;100.00
22550;BME280;11441;57.164;-2.120;2023-04-19T04:59:02;103199.47;;;4.91;100.00
22550;BME280;11441;57.164;-2.120;2023-04-19T05:01:33;103205.91;;;5.07;100.00
22550;BME280;11441;57.164;-2.120;2023-04-19T05:04:01;103218.25;;;4.88;100.00
22550;BME280;11441;57.164;-2.120;2023-04-19T05:06:28;103207.91;;;4.90;100.00
22550;BME280;11441;57.164;-2.120;2023-04-19T05:08:54;103198.06;;;4.89;100.00
22550;BME280;11441;57.164;-2.120;2023-04-19T05:11:33;103203.44;;;4.84;100.00
22550;BME280;11441;57.164;-2.120;2023-04-19T05:14:00;103206.66;;;5.03;100.00
22550;BME280;11441;57.164;-2.120;2023-04-19T05:16:28;103217.72;;;4.91;100.00
22550;BME280;11441;57.164;-2.120;2023-04-19T05:18:55;103209.53;;;4.91;100.00
22550;BME280;11441;57.164;-2.120;2023-04-19T05:21:24;103194.81;;;4.92;100.00
22550;BME280;11441;57.164;-2.120;2023-04-19T05:23:52;103206.22;;;5.11;100.00
22550;BME280;11441;57.164;-2.120;2023-04-19T05:26:38;103204.00;;;5.08;100.00
22550;BME280;11441;57.164;-2.120;2023-04-19T05:29:07;103210.69;;;5.22;100.00
22550;BME280;11441;57.164;-2.120;2023-04-19T05:31:41;103211.56;;;5.01;100.00
22550;BME280;11441;57.164;-2.120;2023-04-19T05:34:15;103218.75;;;4.85;100.00
22550;BME280;11441;57.164;-2.120;2023-04-19T05:36:47;103223.25;;;4.96;100.00
22550;BME280;11441;57.164;-2.120;2023-04-19T05:39:14;103211.69;;;5.11;100.00
22550;BME280;11441;57.164;-2.120;2023-04-19T05:41:41;103223.78;;;5.20;100.00
22550;BME280;11441;57.164;-2.120;2023-04-19T05:44:08;103207.59;;;5.14;100.00
22550;BME280;11441;57.164;-2.120;2023-04-19T05:46:35;103201.88;;;5.15;100.00
22550;BME280;11441;57.164;-2.120;2023-04-19T05:49:03;103207.25;;;5.32;100.00
22550;BME280;11441;57.164;-2.120;2023-04-19T05:51:48;103214.75;;;5.42;100.00
22550;BME280;11441;57.164;-2.120;2023-04-19T05:54:32;103215.47;;;5.32;100.00
22550;BME280;11441;57.164;-2.120;2023-04-19T05:57:02;103209.81;;;5.17;100.00
22550;BME280;11441;57.164;-2.120;2023-04-19T05:59:29;103214.59;;;5.26;100.00
22550;BME280;11441;57.164;-2.120;2023-04-19T06:01:56;103206.78;;;5.40;100.00
22550;BME280;11441;57.164;-2.120;2023-04-19T06:04:24;103210.41;;;5.46;100.00
22550;BME280;11441;57.164;-2.120;2023-04-19T06:06:51;103213.19;;;5.51;100.00
22550;BME280;11441;57.164;-2.120;2023-04-19T06:09:18;103213.09;;;5.73;100.00
22550;BME280;11441;57.164;-2.120;2023-04-19T06:11:45;103213.63;;;5.70;100.00
22550;BME280;11441;57.164;-2.120;2023-04-19T06:14:16;103214.22;;;5.77;100.00
22550;BME280;11441;57.164;-2.120;2023-04-19T06:16:45;103209.78;;;5.71;100.00
22550;BME280;11441;57.164;-2.120;2023-04-19T06:19:12;103202.72;;;5.75;100.00
22550;BME280;11441;57.164;-2.120;2023-04-19T06:21:39;103199.78;;;5.82;100.00
22550;BME280;11441;57.164;-2.120;2023-04-19T06:24:06;103208.19;;;5.75;100.00
22550;BME280;11441;57.164;-2.120;2023-04-19T06:26:51;103226.75;;;6.00;100.00
22550;BME280;11441;57.164;-2.120;2023-04-19T06:29:17;103205.28;;;5.87;100.00
22550;BME280;11441;57.164;-2.120;2023-04-19T06:31:47;103208.28;;;5.85;100.00
22550;BME280;11441;57.164;-2.120;2023-04-19T06:34:14;103203.31;;;5.82;100.00
22550;BME280;11441;57.164;-2.120;2023-04-19T06:36:41;103206.09;;;5.88;100.00
22550;BME280;11441;57.164;-2.120;2023-04-19T06:39:08;103208.03;;;5.87;100.00
22550;BME280;11441;57.164;-2.120;2023-04-19T06:41:35;103211.69;;;5.98;100.00
22550;BME280;11441;57.164;-2.120;2023-04-19T06:44:02;103210.94;;;6.13;100.00
22550;BME280;11441;57.164;-2.120;2023-04-19T06:46:29;103213.91;;;6.01;100.00
22550;BME280;11441;57.164;-2.120;2023-04-19T06:48:56;103213.50;;;6.25;100.00
22550;BME280;11441;57.164;-2.120;2023-04-19T06:51:41;103208.06;;;6.30;100.00
22550;BME280;11441;57.164;-2.120;2023-04-19T06:54:08;103207.22;;;6.24;100.00
22550;BME280;11441;57.164;-2.120;2023-04-19T06:59:12;103205.41;;;6.45;100.00
22550;BME280;11441;57.164;-2.120;2023-04-19T07:01:39;103211.69;;;6.46;100.00
22550;BME280;11441;57.164;-2.120;2023-04-19T07:04:09;103208.13;;;6.40;100.00
22550;BME280;11441;57.164;-2.120;2023-04-19T07:06:38;103212.06;;;6.65;100.00
22550;BME280;11441;57.164;-2.120;2023-04-19T07:09:05;103216.44;;;6.60;100.00
22550;BME280;11441;57.164;-2.120;2023-04-19T07:11:33;103215.31;;;6.61;100.00
22550;BME280;11441;57.164;-2.120;2023-04-19T07:14:00;103207.41;;;6.65;100.00
22550;BME280;11441;57.164;-2.120;2023-04-19T07:16:27;103211.63;;;6.88;100.00
22550;BME280;11441;57.164;-2.120;2023-04-19T07:18:54;103203.13;;;6.90;100.00
22550;BME280;11441;57.164;-2.120;2023-04-19T07:21:21;103211.69;;;7.14;100.00
22550;BME280;11441;57.164;-2.120;2023-04-19T07:23:50;103210.81;;;6.98;100.00
22550;BME280;11441;57.164;-2.120;2023-04-19T07:26:17;103222.63;;;6.98;100.00
22550;BME280;11441;57.164;-2.120;2023-04-19T07:28:44;103198.25;;;7.07;100.00
22550;BME280;11441;57.164;-2.120;2023-04-19T07:31:15;103209.50;;;7.16;100.00
22550;BME280;11441;57.164;-2.120;2023-04-19T07:33:43;103212.81;;;7.18;100.00
22550;BME280;11441;57.164;-2.120;2023-04-19T07:36:10;103211.72;;;7.29;100.00
22550;BME280;11441;57.164;-2.120;2023-04-19T07:38:37;103214.72;;;7.28;100.00
22550;BME280;11441;57.164;-2.120;2023-04-19T07:41:04;103216.13;;;7.30;100.00
22550;BME280;11441;57.164;-2.120;2023-04-19T07:43:31;103206.81;;;7.52;100.00
22550;BME280;11441;57.164;-2.120;2023-04-19T07:45:58;103207.66;;;7.47;100.00
22550;BME280;11441;57.164;-2.120;2023-04-19T07:48:25;103208.72;;;7.51;100.00
22550;BME280;11441;57.164;-2.120;2023-04-19T07:50:52;103204.88;;;7.63;100.00
22550;BME280;11441;57.164;-2.120;2023-04-19T07:53:19;103215.31;;;7.71;100.00
22550;BME280;11441;57.164;-2.120;2023-04-19T07:55:46;103213.41;;;7.77;100.00
22550;BME280;11441;57.164;-2.120;2023-04-19T07:58:13;103212.56;;;7.86;100.00
22550;BME280;11441;57.164;-2.120;2023-04-19T08:00:40;103213.41;;;7.87;100.00
22550;BME280;11441;57.164;-2.120;2023-04-19T08:03:07;103219.69;;;8.03;100.00
22550;BME280;11441;57.164;-2.120;2023-04-19T08:05:34;103219.13;;;8.16;100.00
22550;BME280;11441;57.164;-2.120;2023-04-19T08:08:01;103211.13;;;8.30;100.00
22550;BME280;11441;57.164;-2.120;2023-04-19T08:10:29;103210.34;;;8.24;100.00
22550;BME280;11441;57.164;-2.120;2023-04-19T08:12:56;103222.09;;;8.40;100.00
22550;BME280;11441;57.164;-2.120;2023-04-19T08:15:32;103214.94;;;8.39;100.00
22550;BME280;11441;57.164;-2.120;2023-04-19T08:18:03;103216.03;;;8.59;100.00
22550;BME280;11441;57.164;-2.120;2023-04-19T08:20:50;103223.16;;;8.65;100.00
22550;BME280;11441;57.164;-2.120;2023-04-19T08:23:17;103213.50;;;8.78;100.00
22550;BME280;11441;57.164;-2.120;2023-04-19T08:25:55;103213.97;;;8.90;100.00
22550;BME280;11441;57.164;-2.120;2023-04-19T08:28:21;103216.94;;;9.04;100.00
22550;BME280;11441;57.164;-2.120;2023-04-19T08:30:48;103220.50;;;9.04;100.00
22550;BME280;11441;57.164;-2.120;2023-04-19T08:33:15;103216.31;;;9.12;100.00
22550;BME280;11441;57.164;-2.120;2023-04-19T08:35:43;103210.00;;;9.12;100.00
22550;BME280;11441;57.164;-2.120;2023-04-19T08:38:29;103208.31;;;9.16;100.00
22550;BME280;11441;57.164;-2.120;2023-04-19T08:40:56;103209.59;;;9.34;100.00
22550;BME280;11441;57.164;-2.120;2023-04-19T08:43:24;103203.84;;;9.30;100.00
22550;BME280;11441;57.164;-2.120;2023-04-19T08:45:51;103200.63;;;9.57;100.00
22550;BME280;11441;57.164;-2.120;2023-04-19T08:48:20;103204.66;;;9.70;100.00
22550;BME280;11441;57.164;-2.120;2023-04-19T08:50:48;103208.34;;;9.55;100.00
22550;BME280;11441;57.164;-2.120;2023-04-19T08:53:34;103204.41;;;9.67;100.00
22550;BME280;11441;57.164;-2.120;2023-04-19T08:56:01;103201.81;;;9.80;100.00
22550;BME280;11441;57.164;-2.120;2023-04-19T08:58:31;103204.22;;;9.87;100.00
22550;BME280;11441;57.164;-2.120;2023-04-19T09:01:18;103189.78;;;10.00;100.00
22550;BME280;11441;57.164;-2.120;2023-04-19T09:03:59;103188.91;;;10.05;100.00
22550;BME280;11441;57.164;-2.120;2023-04-19T09:06:47;103204.81;;;9.84;100.00
22550;BME280;11441;57.164;-2.120;2023-04-19T09:09:19;103190.00;;;10.04;100.00
22550;BME280;11441;57.164;-2.120;2023-04-19T09:12:20;103199.19;;;9.94;100.00
22550;BME280;11441;57.164;-2.120;2023-04-19T09:14:47;103192.38;;;10.16;100.00
22550;BME280;11441;57.164;-2.120;2023-04-19T09:17:17;103192.06;;;9.93;100.00
22550;BME280;11441;57.164;-2.120;2023-04-19T09:19:47;103197.81;;;9.97;100.00
22550;BME280;11441;57.164;-2.120;2023-04-19T09:22:15;103195.59;;;10.23;100.00
22550;BME280;11441;57.164;-2.120;2023-04-19T09:24:42;103201.75;;;10.15;100.00
22550;BME280;11441;57.164;-2.120;2023-04-19T09:27:14;103198.81;;;10.30;100.00
22550;BME280;11441;57.164;-2.120;2023-04-19T09:29:51;103203.88;;;10.23;100.00
22550;BME280;11441;57.164;-2.120;2023-04-19T09:32:18;103196.63;;;10.32;100.00
22550;BME280;11441;57.164;-2.120;2023-04-19T09:34:59;103200.41;;;10.12;100.00
22550;BME280;11441;57.164;-2.120;2023-04-19T09:37:26;103193.34;;;10.01;100.00
22550;BME280;11441;57.164;-2.120;2023-04-19T09:40:23;103197.78;;;10.26;100.00
22550;BME280;11441;57.164;-2.120;2023-04-19T09:42:51;103197.25;;;10.24;100.00
22550;BME280;11441;57.164;-2.120;2023-04-19T09:45:21;103194.19;;;10.26;100.00
22550;BME280;11441;57.164;-2.120;2023-04-19T09:48:04;103199.97;;;10.53;100.00
22550;BME280;11441;57.164;-2.120;2023-04-19T09:50:33;103197.59;;;10.47;100.00
22550;BME280;11441;57.164;-2.120;2023-04-19T09:53:21;103203.56;;;10.54;100.00
22550;BME280;11441;57.164;-2.120;2023-04-19T09:55:49;103200.13;;;10.62;100.00
22550;BME280;11441;57.164;-2.120;2023-04-19T09:58:27;103199.16;;;10.53;100.00
22550;BME280;11441;57.164;-2.120;2023-04-19T10:01:03;103202.66;;;10.34;100.00
22550;BME280;11441;57.164;-2.120;2023-04-19T10:03:33;103201.13;;;10.71;100.00
22550;BME280;11441;57.164;-2.120;2023-04-19T10:06:02;103201.56;;;10.60;100.00
22550;BME280;11441;57.164;-2.120;2023-04-19T10:08:59;103200.28;;;10.71;100.00
22550;BME280;11441;57.164;-2.120;2023-04-19T10:11:31;103203.06;;;10.71;100.00
22550;BME280;11441;57.164;-2.120;2023-04-19T10:14:07;103197.19;;;10.78;100.00
22550;BME280;11441;57.164;-2.120;2023-04-19T10:16:35;103203.81;;;10.77;100.00
22550;BME280;11441;57.164;-2.120;2023-04-19T10:19:14;103194.69;;;10.57;100.00
22550;BME280;11441;57.164;-2.120;2023-04-19T10:21:42;103193.50;;;10.63;100.00
22550;BME280;11441;57.164;-2.120;2023-04-19T10:24:14;103194.88;;;10.85;100.00
22550;BME280;11441;57.164;-2.120;2023-04-19T10:27:09;103192.75;;;11.01;100.00
22550;BME280;11441;57.164;-2.120;2023-04-19T10:32:17;103188.13;;;11.15;100.00
22550;BME280;11441;57.164;-2.120;2023-04-19T10:34:47;103183.56;;;11.05;100.00
22550;BME280;11441;57.164;-2.120;2023-04-19T10:37:13;103178.94;;;11.20;100.00
22550;BME280;11441;57.164;-2.120;2023-04-19T10:39:42;103187.41;;;11.09;100.00
22550;BME280;11441;57.164;-2.120;2023-04-19T10:42:09;103181.34;;;11.07;100.00
22550;BME280;11441;57.164;-2.120;2023-04-19T10:45:31;103173.69;;;11.37;100.00
22550;BME280;11441;57.164;-2.120;2023-04-19T10:47:58;103183.50;;;11.10;100.00
22550;BME280;11441;57.164;-2.120;2023-04-19T10:50:26;103183.13;;;10.98;100.00
22550;BME280;11441;57.164;-2.120;2023-04-19T10:52:53;103187.91;;;10.92;100.00
22550;BME280;11441;57.164;-2.120;2023-04-19T10:55:20;103181.34;;;11.07;100.00
22550;BME280;11441;57.164;-2.120;2023-04-19T10:58:03;103176.94;;;11.06;100.00
22550;BME280;11441;57.164;-2.120;2023-04-19T11:00:32;103174.69;;;11.27;100.00
22550;BME280;11441;57.164;-2.120;2023-04-19T11:02:59;103170.34;;;11.40;100.00
22550;BME280;11441;57.164;-2.120;2023-04-19T11:05:26;103167.63;;;11.54;100.00
22550;BME280;11441;57.164;-2.120;2023-04-19T11:07:53;103174.16;;;11.44;100.00
22550;BME280;11441;57.164;-2.120;2023-04-19T11:10:28;103170.03;;;11.61;100.00
22550;BME280;11441;57.164;-2.120;2023-04-19T11:12:59;103163.31;;;11.15;100.00
22550;BME280;11441;57.164;-2.120;2023-04-19T11:15:26;103179.78;;;11.20;100.00
22550;BME280;11441;57.164;-2.120;2023-04-19T11:17:52;103167.81;;;11.44;100.00
22550;BME280;11441;57.164;-2.120;2023-04-19T11:20:37;103177.31;;;11.38;100.00
22550;BME280;11441;57.164;-2.120;2023-04-19T11:23:14;103175.78;;;11.45;100.00
22550;BME280;11441;57.164;-2.120;2023-04-19T11:25:44;103177.91;;;11.16;100.00
22550;BME280;11441;57.164;-2.120;2023-04-19T11:28:14;103174.81;;;11.55;100.00
22550;BME280;11441;57.164;-2.120;2023-04-19T11:30:43;103175.28;;;11.24;100.00
22550;BME280;11441;57.164;-2.120;2023-04-19T11:33:12;103180.59;;;11.21;100.00
22550;BME280;11441;57.164;-2.120;2023-04-19T11:35:39;103177.75;;;11.45;100.00
22550;BME280;11441;57.164;-2.120;2023-04-19T11:38:06;103178.31;;;11.61;100.00
22550;BME280;11441;57.164;-2.120;2023-04-19T11:40:33;103168.59;;;11.11;100.00
22550;BME280;11441;57.164;-2.120;2023-04-19T11:43:03;103174.59;;;11.51;100.00
22550;BME280;11441;57.164;-2.120;2023-04-19T11:45:33;103177.75;;;11.45;100.00
22550;BME280;11441;57.164;-2.120;2023-04-19T11:48:06;103169.03;;;11.19;100.00
22550;BME280;11441;57.164;-2.120;2023-04-19T11:53:22;103179.34;;;11.32;100.00
22550;BME280;11441;57.164;-2.120;2023-04-19T11:55:51;103161.22;;;11.26;100.00
22550;BME280;11441;57.164;-2.120;2023-04-19T11:58:38;103163.38;;;11.62;100.00
22550;BME280;11441;57.164;-2.120;2023-04-19T12:01:08;103161.53;;;11.57;100.00
22550;BME280;11441;57.164;-2.120;2023-04-19T12:03:49;103169.22;;;11.60;100.00
22550;BME280;11441;57.164;-2.120;2023-04-19T12:06:21;103163.69;;;11.60;100.00
22550;BME280;11441;57.164;-2.120;2023-04-19T12:08:50;103156.00;;;11.57;100.00
22550;BME280;11441;57.164;-2.120;2023-04-19T12:11:20;103164.88;;;11.54;100.00
22550;BME280;11441;57.164;-2.120;2023-04-19T12:14:09;103168.94;;;11.76;100.00
22550;BME280;11441;57.164;-2.120;2023-04-19T12:16:37;103163.72;;;11.74;100.00
22550;BME280;11441;57.164;-2.120;2023-04-19T12:19:14;103168.22;;;11.84;100.00
22550;BME280;11441;57.164;-2.120;2023-04-19T12:21:45;103161.22;;;11.59;100.00
22550;BME280;11441;57.164;-2.120;2023-04-19T12:24:14;103159.00;;;11.75;100.00
22550;BME280;11441;57.164;-2.120;2023-04-19T12:26:52;103153.34;;;11.99;100.00
22550;BME280;11441;57.164;-2.120;2023-04-19T12:29:22;103156.66;;;11.82;100.00
22550;BME280;11441;57.164;-2.120;2023-04-19T12:31:48;103149.78;;;11.98;100.00
22550;BME280;11441;57.164;-2.120;2023-04-19T12:34:15;103156.94;;;12.13;100.00
22550;BME280;11441;57.164;-2.120;2023-04-19T12:36:42;103161.78;;;12.21;100.00
22550;BME280;11441;57.164;-2.120;2023-04-19T12:39:09;103149.56;;;11.95;100.00
22550;BME280;11441;57.164;-2.120;2023-04-19T12:41:36;103148.75;;;12.22;100.00
22550;BME280;11441;57.164;-2.120;2023-04-19T12:44:03;103147.94;;;12.35;100.00
22550;BME280;11441;57.164;-2.120;2023-04-19T12:46:30;103147.25;;;12.30;100.00
22550;BME280;11441;57.164;-2.120;2023-04-19T12:48:56;103141.91;;;12.33;100.00
22550;BME280;11441;57.164;-2.120;2023-04-19T12:51:23;103137.91;;;12.12;100.00
22550;BME280;11441;57.164;-2.120;2023-04-19T12:53:51;103124.41;;;12.24;100.00
22550;BME280;11441;57.164;-2.120;2023-04-19T12:56:18;103135.34;;;12.43;100.00
22550;BME280;11441;57.164;-2.120;2023-04-19T12:58:44;103136.66;;;12.59;100.00
22550;BME280;11441;57.164;-2.120;2023-04-19T13:01:12;103128.19;;;12.42;100.00
22550;BME280;11441;57.164;-2.120;2023-04-19T13:03:39;103131.16;;;12.59;100.00